Portada
METAR-TAF:

METAR-TAF

Aeroports :

Harbin, Xina

latitud: 45-45N, longitud: 126-46E, altitud: 143 m

Observació

L'informe es va fer fa 12 minuts, a les 20:00 UTC
Vent 4 kt del Nord/Nord-Oest
Temperatura 12°C
Humitat 94%
Pressió 1002 hPa
Visibilitat 10 km o més
sense núvols per sota de 1500 mi sense presència de cumulonimbus.

METAR: ZYHB 012000Z 33002MPS CAVOK 12/11 Q1002 NOSIG

Hora: 04:12 (20:12 UTC)

Pronòstic

L'informe es va fer fa 5 hores i 9 minuts, a les 15:03 UTC
Pronòstic vàlid del 01 a les 18 UTC al 02 a les 18 UTC
Vent 8 kt del Oest
Visibilitat: 6000 m
Núvols disperses a una alçada de 2600 ft

TAF: ZYHB 011503Z 0118/0218 27004MPS 6000 SCT026 TX23/0206Z TN10/0121Z

Observacions i pronòstics meteorològics de més de 4000 aeroports (METAR i TAF).

Les estacions disponibles són els punts grocs i vermells al mapa.

Posi el ratolí al punt desitjat per veure el nom de l'estació.

Feu clic per veure les observacions i els pronòstics meteorològics.

Per canviar el mapa: feu clic els botons verds amb una creu de color negre per apropar; al botó verd amb un guió per allunyar la imatge; o en les fletxes verdes per a mapes adjacents.


METAR-TAF: